sensor_id;sensor_type;location;lat;lon;timestamp;P1;durP1;ratioP1;P2;durP2;ratioP2
14078;SDS011;7115;50.150;8.568;2023-02-18T00:01:08;4.73;;;3.17;;
14078;SDS011;7115;50.150;8.568;2023-02-18T00:03:35;4.07;;;3.30;;
14078;SDS011;7115;50.150;8.568;2023-02-18T00:06:10;4.50;;;3.33;;
14078;SDS011;7115;50.150;8.568;2023-02-18T00:08:38;4.23;;;3.60;;
14078;SDS011;7115;50.150;8.568;2023-02-18T00:11:06;6.00;;;3.73;;
14078;SDS011;7115;50.150;8.568;2023-02-18T00:13:33;5.73;;;4.07;;
14078;SDS011;7115;50.150;8.568;2023-02-18T00:16:00;4.87;;;4.20;;
14078;SDS011;7115;50.150;8.568;2023-02-18T00:18:28;5.50;;;4.07;;
14078;SDS011;7115;50.150;8.568;2023-02-18T00:20:55;4.83;;;3.57;;
14078;SDS011;7115;50.150;8.568;2023-02-18T00:23:24;5.27;;;3.40;;
14078;SDS011;7115;50.150;8.568;2023-02-18T00:25:57;5.37;;;3.30;;
14078;SDS011;7115;50.150;8.568;2023-02-18T00:28:24;3.87;;;2.67;;
14078;SDS011;7115;50.150;8.568;2023-02-18T00:30:51;2.87;;;2.07;;
14078;SDS011;7115;50.150;8.568;2023-02-18T00:33:19;3.70;;;1.70;;
14078;SDS011;7115;50.150;8.568;2023-02-18T00:35:46;2.10;;;1.77;;
14078;SDS011;7115;50.150;8.568;2023-02-18T00:38:13;2.33;;;1.80;;
14078;SDS011;7115;50.150;8.568;2023-02-18T00:40:41;1.40;;;1.27;;
14078;SDS011;7115;50.150;8.568;2023-02-18T00:43:08;1.10;;;1.00;;
14078;SDS011;7115;50.150;8.568;2023-02-18T00:45:35;3.43;;;1.30;;
14078;SDS011;7115;50.150;8.568;2023-02-18T00:48:02;1.67;;;0.87;;
14078;SDS011;7115;50.150;8.568;2023-02-18T00:50:29;1.60;;;1.03;;
14078;SDS011;7115;50.150;8.568;2023-02-18T00:52:56;1.50;;;1.20;;
14078;SDS011;7115;50.150;8.568;2023-02-18T00:55:23;2.23;;;1.90;;
14078;SDS011;7115;50.150;8.568;2023-02-18T00:57:51;2.30;;;1.73;;
14078;SDS011;7115;50.150;8.568;2023-02-18T01:00:18;2.80;;;1.60;;
14078;SDS011;7115;50.150;8.568;2023-02-18T01:02:45;3.37;;;1.50;;
14078;SDS011;7115;50.150;8.568;2023-02-18T01:05:12;2.50;;;1.40;;
14078;SDS011;7115;50.150;8.568;2023-02-18T01:07:39;1.83;;;1.40;;
14078;SDS011;7115;50.150;8.568;2023-02-18T01:10:06;1.23;;;1.10;;
14078;SDS011;7115;50.150;8.568;2023-02-18T01:12:33;3.13;;;1.53;;
14078;SDS011;7115;50.150;8.568;2023-02-18T01:15:02;1.70;;;1.30;;
14078;SDS011;7115;50.150;8.568;2023-02-18T01:17:29;2.00;;;1.53;;
14078;SDS011;7115;50.150;8.568;2023-02-18T01:19:56;4.37;;;1.50;;
14078;SDS011;7115;50.150;8.568;2023-02-18T01:22:23;2.50;;;1.70;;
14078;SDS011;7115;50.150;8.568;2023-02-18T01:24:50;2.40;;;1.93;;
14078;SDS011;7115;50.150;8.568;2023-02-18T01:27:17;5.47;;;1.90;;
14078;SDS011;7115;50.150;8.568;2023-02-18T01:29:44;3.33;;;2.13;;
14078;SDS011;7115;50.150;8.568;2023-02-18T01:32:12;2.77;;;1.83;;
14078;SDS011;7115;50.150;8.568;2023-02-18T01:34:39;1.93;;;1.37;;
14078;SDS011;7115;50.150;8.568;2023-02-18T01:37:06;1.67;;;1.00;;
14078;SDS011;7115;50.150;8.568;2023-02-18T01:39:33;1.53;;;1.07;;
14078;SDS011;7115;50.150;8.568;2023-02-18T01:42:00;2.10;;;1.00;;
14078;SDS011;7115;50.150;8.568;2023-02-18T01:44:27;1.17;;;0.80;;
14078;SDS011;7115;50.150;8.568;2023-02-18T01:46:55;1.10;;;1.00;;
14078;SDS011;7115;50.150;8.568;2023-02-18T01:49:24;1.70;;;0.93;;
14078;SDS011;7115;50.150;8.568;2023-02-18T01:51:54;1.20;;;1.03;;
14078;SDS011;7115;50.150;8.568;2023-02-18T01:54:26;1.83;;;1.00;;
14078;SDS011;7115;50.150;8.568;2023-02-18T01:56:58;1.00;;;0.90;;
14078;SDS011;7115;50.150;8.568;2023-02-18T01:59:30;1.30;;;1.03;;
14078;SDS011;7115;50.150;8.568;2023-02-18T02:02:02;1.33;;;1.07;;
14078;SDS011;7115;50.150;8.568;2023-02-18T02:04:31;2.40;;;0.80;;
14078;SDS011;7115;50.150;8.568;2023-02-18T02:06:58;1.23;;;0.80;;
14078;SDS011;7115;50.150;8.568;2023-02-18T02:09:25;1.80;;;1.33;;
14078;SDS011;7115;50.150;8.568;2023-02-18T02:11:59;0.60;;;0.50;;
14078;SDS011;7115;50.150;8.568;2023-02-18T02:14:51;0.67;;;0.63;;
14078;SDS011;7115;50.150;8.568;2023-02-18T02:17:31;0.90;;;0.60;;
14078;SDS011;7115;50.150;8.568;2023-02-18T02:20:29;0.73;;;0.50;;
14078;SDS011;7115;50.150;8.568;2023-02-18T02:26:24;0.87;;;0.40;;
14078;SDS011;7115;50.150;8.568;2023-02-18T02:29:21;0.30;;;0.30;;
14078;SDS011;7115;50.150;8.568;2023-02-18T02:32:09;1.27;;;0.40;;
14078;SDS011;7115;50.150;8.568;2023-02-18T02:34:57;0.50;;;0.50;;
14078;SDS011;7115;50.150;8.568;2023-02-18T02:37:30;1.13;;;0.40;;
14078;SDS011;7115;50.150;8.568;2023-02-18T02:40:05;1.03;;;0.30;;
14078;SDS011;7115;50.150;8.568;2023-02-18T02:42:44;0.50;;;0.43;;
14078;SDS011;7115;50.150;8.568;2023-02-18T02:45:18;1.00;;;0.70;;
14078;SDS011;7115;50.150;8.568;2023-02-18T02:47:54;1.20;;;0.70;;
14078;SDS011;7115;50.150;8.568;2023-02-18T02:50:30;1.37;;;0.80;;
14078;SDS011;7115;50.150;8.568;2023-02-18T02:53:04;1.27;;;0.70;;
14078;SDS011;7115;50.150;8.568;2023-02-18T02:55:38;0.80;;;0.70;;
14078;SDS011;7115;50.150;8.568;2023-02-18T02:58:05;1.50;;;0.43;;
14078;SDS011;7115;50.150;8.568;2023-02-18T03:00:35;1.83;;;0.50;;
14078;SDS011;7115;50.150;8.568;2023-02-18T03:03:16;0.93;;;0.60;;
14078;SDS011;7115;50.150;8.568;2023-02-18T03:06:01;0.40;;;0.40;;
14078;SDS011;7115;50.150;8.568;2023-02-18T03:08:38;1.90;;;0.70;;
14078;SDS011;7115;50.150;8.568;2023-02-18T03:11:10;1.17;;;0.43;;
14078;SDS011;7115;50.150;8.568;2023-02-18T03:13:43;1.03;;;0.47;;
14078;SDS011;7115;50.150;8.568;2023-02-18T03:16:25;2.23;;;0.70;;
14078;SDS011;7115;50.150;8.568;2023-02-18T03:18:59;0.73;;;0.67;;
14078;SDS011;7115;50.150;8.568;2023-02-18T03:21:35;0.87;;;0.60;;
14078;SDS011;7115;50.150;8.568;2023-02-18T03:24:06;1.03;;;0.60;;
14078;SDS011;7115;50.150;8.568;2023-02-18T03:26:39;1.27;;;0.50;;
14078;SDS011;7115;50.150;8.568;2023-02-18T03:29:10;1.77;;;0.47;;
14078;SDS011;7115;50.150;8.568;2023-02-18T03:31:39;0.40;;;0.40;;
14078;SDS011;7115;50.150;8.568;2023-02-18T03:34:11;0.93;;;0.60;;
14078;SDS011;7115;50.150;8.568;2023-02-18T03:36:43;1.00;;;0.47;;
14078;SDS011;7115;50.150;8.568;2023-02-18T03:39:12;1.77;;;0.40;;
14078;SDS011;7115;50.150;8.568;2023-02-18T03:41:41;0.40;;;0.40;;
14078;SDS011;7115;50.150;8.568;2023-02-18T03:44:09;0.83;;;0.40;;
14078;SDS011;7115;50.150;8.568;2023-02-18T03:46:38;0.70;;;0.60;;
14078;SDS011;7115;50.150;8.568;2023-02-18T03:49:08;0.40;;;0.40;;
14078;SDS011;7115;50.150;8.568;2023-02-18T03:51:36;1.67;;;0.50;;
14078;SDS011;7115;50.150;8.568;2023-02-18T03:54:05;0.40;;;0.40;;
14078;SDS011;7115;50.150;8.568;2023-02-18T03:56:32;0.53;;;0.53;;
14078;SDS011;7115;50.150;8.568;2023-02-18T03:58:59;1.73;;;0.60;;
14078;SDS011;7115;50.150;8.568;2023-02-18T04:01:26;1.77;;;0.50;;
14078;SDS011;7115;50.150;8.568;2023-02-18T04:03:53;1.17;;;0.83;;
14078;SDS011;7115;50.150;8.568;2023-02-18T04:06:20;0.67;;;0.50;;
14078;SDS011;7115;50.150;8.568;2023-02-18T04:08:47;1.70;;;0.60;;
14078;SDS011;7115;50.150;8.568;2023-02-18T04:11:16;1.40;;;1.30;;
14078;SDS011;7115;50.150;8.568;2023-02-18T04:13:43;0.67;;;0.50;;
14078;SDS011;7115;50.150;8.568;2023-02-18T04:16:10;0.83;;;0.73;;
14078;SDS011;7115;50.150;8.568;2023-02-18T04:18:37;0.80;;;0.60;;
14078;SDS011;7115;50.150;8.568;2023-02-18T04:21:04;1.43;;;0.70;;
14078;SDS011;7115;50.150;8.568;2023-02-18T04:23:31;1.33;;;0.57;;
14078;SDS011;7115;50.150;8.568;2023-02-18T04:25:58;5.37;;;0.67;;
14078;SDS011;7115;50.150;8.568;2023-02-18T04:28:27;2.40;;;0.70;;
14078;SDS011;7115;50.150;8.568;2023-02-18T04:30:53;1.03;;;0.70;;
14078;SDS011;7115;50.150;8.568;2023-02-18T04:33:20;1.97;;;0.83;;
14078;SDS011;7115;50.150;8.568;2023-02-18T04:35:47;0.90;;;0.70;;
14078;SDS011;7115;50.150;8.568;2023-02-18T04:38:14;0.93;;;0.70;;
14078;SDS011;7115;50.150;8.568;2023-02-18T04:40:41;0.73;;;0.70;;
14078;SDS011;7115;50.150;8.568;2023-02-18T04:43:08;0.77;;;0.50;;
14078;SDS011;7115;50.150;8.568;2023-02-18T04:45:36;1.10;;;0.70;;
14078;SDS011;7115;50.150;8.568;2023-02-18T04:48:03;2.00;;;0.40;;
14078;SDS011;7115;50.150;8.568;2023-02-18T04:50:31;0.80;;;0.53;;
14078;SDS011;7115;50.150;8.568;2023-02-18T04:52:57;1.50;;;0.73;;
14078;SDS011;7115;50.150;8.568;2023-02-18T04:55:24;1.40;;;0.80;;
14078;SDS011;7115;50.150;8.568;2023-02-18T04:57:51;0.97;;;0.70;;
14078;SDS011;7115;50.150;8.568;2023-02-18T05:00:18;1.83;;;0.60;;
14078;SDS011;7115;50.150;8.568;2023-02-18T05:02:47;0.93;;;0.63;;
14078;SDS011;7115;50.150;8.568;2023-02-18T05:05:14;0.90;;;0.83;;
14078;SDS011;7115;50.150;8.568;2023-02-18T05:07:41;5.03;;;0.80;;
14078;SDS011;7115;50.150;8.568;2023-02-18T05:10:08;1.73;;;0.90;;
14078;SDS011;7115;50.150;8.568;2023-02-18T05:12:36;1.33;;;1.10;;
14078;SDS011;7115;50.150;8.568;2023-02-18T05:15:04;2.83;;;0.80;;
14078;SDS011;7115;50.150;8.568;2023-02-18T05:17:31;2.03;;;1.00;;
14078;SDS011;7115;50.150;8.568;2023-02-18T05:19:59;1.67;;;1.00;;
14078;SDS011;7115;50.150;8.568;2023-02-18T05:22:26;1.50;;;1.20;;
14078;SDS011;7115;50.150;8.568;2023-02-18T05:24:53;3.03;;;1.17;;
14078;SDS011;7115;50.150;8.568;2023-02-18T05:27:20;2.27;;;1.23;;
14078;SDS011;7115;50.150;8.568;2023-02-18T05:29:47;1.83;;;1.23;;
14078;SDS011;7115;50.150;8.568;2023-02-18T05:32:14;2.07;;;1.10;;
14078;SDS011;7115;50.150;8.568;2023-02-18T05:34:41;1.00;;;0.77;;
14078;SDS011;7115;50.150;8.568;2023-02-18T05:37:09;1.60;;;1.03;;
14078;SDS011;7115;50.150;8.568;2023-02-18T05:39:36;1.43;;;0.87;;
14078;SDS011;7115;50.150;8.568;2023-02-18T05:42:03;1.00;;;0.80;;
14078;SDS011;7115;50.150;8.568;2023-02-18T05:44:30;1.30;;;0.70;;
14078;SDS011;7115;50.150;8.568;2023-02-18T05:46:58;0.77;;;0.50;;
14078;SDS011;7115;50.150;8.568;2023-02-18T05:49:26;1.93;;;0.60;;
14078;SDS011;7115;50.150;8.568;2023-02-18T05:51:53;0.50;;;0.40;;
14078;SDS011;7115;50.150;8.568;2023-02-18T05:54:21;0.60;;;0.60;;
14078;SDS011;7115;50.150;8.568;2023-02-18T05:56:49;0.73;;;0.73;;
14078;SDS011;7115;50.150;8.568;2023-02-18T05:59:16;0.50;;;0.40;;
14078;SDS011;7115;50.150;8.568;2023-02-18T06:01:43;1.60;;;0.60;;
14078;SDS011;7115;50.150;8.568;2023-02-18T06:04:11;1.70;;;0.70;;
14078;SDS011;7115;50.150;8.568;2023-02-18T06:06:38;2.03;;;0.60;;
14078;SDS011;7115;50.150;8.568;2023-02-18T06:09:06;2.57;;;0.60;;
14078;SDS011;7115;50.150;8.568;2023-02-18T06:11:35;1.23;;;0.67;;
14078;SDS011;7115;50.150;8.568;2023-02-18T06:14:02;1.43;;;0.60;;
14078;SDS011;7115;50.150;8.568;2023-02-18T06:16:29;0.87;;;0.70;;
14078;SDS011;7115;50.150;8.568;2023-02-18T06:18:57;1.70;;;0.93;;
14078;SDS011;7115;50.150;8.568;2023-02-18T06:21:24;0.60;;;0.50;;
14078;SDS011;7115;50.150;8.568;2023-02-18T06:23:51;3.43;;;0.90;;
14078;SDS011;7115;50.150;8.568;2023-02-18T06:26:18;0.97;;;0.50;;
14078;SDS011;7115;50.150;8.568;2023-02-18T06:28:46;1.10;;;0.50;;
14078;SDS011;7115;50.150;8.568;2023-02-18T06:31:13;1.43;;;0.60;;
14078;SDS011;7115;50.150;8.568;2023-02-18T06:33:40;1.93;;;0.63;;
14078;SDS011;7115;50.150;8.568;2023-02-18T06:36:08;0.60;;;0.50;;
14078;SDS011;7115;50.150;8.568;2023-02-18T06:38:38;1.17;;;0.70;;
14078;SDS011;7115;50.150;8.568;2023-02-18T06:41:05;0.50;;;0.50;;
14078;SDS011;7115;50.150;8.568;2023-02-18T06:43:33;0.60;;;0.60;;
14078;SDS011;7115;50.150;8.568;2023-02-18T06:46:02;0.70;;;0.70;;
14078;SDS011;7115;50.150;8.568;2023-02-18T06:48:29;1.30;;;0.87;;
14078;SDS011;7115;50.150;8.568;2023-02-18T06:50:56;1.90;;;0.80;;
14078;SDS011;7115;50.150;8.568;2023-02-18T06:53:24;0.97;;;0.87;;
14078;SDS011;7115;50.150;8.568;2023-02-18T06:55:51;3.33;;;0.90;;
14078;SDS011;7115;50.150;8.568;2023-02-18T06:58:18;1.23;;;1.00;;
14078;SDS011;7115;50.150;8.568;2023-02-18T07:00:44;1.60;;;0.87;;
14078;SDS011;7115;50.150;8.568;2023-02-18T07:03:13;1.03;;;0.90;;
14078;SDS011;7115;50.150;8.568;2023-02-18T07:05:40;2.00;;;0.90;;
14078;SDS011;7115;50.150;8.568;2023-02-18T07:08:07;2.10;;;1.27;;
14078;SDS011;7115;50.150;8.568;2023-02-18T07:10:35;4.70;;;1.20;;
14078;SDS011;7115;50.150;8.568;2023-02-18T07:13:02;2.03;;;1.50;;
14078;SDS011;7115;50.150;8.568;2023-02-18T07:15:30;2.17;;;1.70;;
14078;SDS011;7115;50.150;8.568;2023-02-18T07:17:57;2.23;;;1.43;;
14078;SDS011;7115;50.150;8.568;2023-02-18T07:20:25;2.50;;;1.70;;
14078;SDS011;7115;50.150;8.568;2023-02-18T07:22:53;2.20;;;1.60;;
14078;SDS011;7115;50.150;8.568;2023-02-18T07:25:20;2.77;;;1.60;;
14078;SDS011;7115;50.150;8.568;2023-02-18T07:27:48;3.23;;;2.07;;
14078;SDS011;7115;50.150;8.568;2023-02-18T07:30:16;1.67;;;1.57;;
14078;SDS011;7115;50.150;8.568;2023-02-18T07:32:43;1.40;;;1.30;;
14078;SDS011;7115;50.150;8.568;2023-02-18T07:35:11;2.43;;;1.80;;
14078;SDS011;7115;50.150;8.568;2023-02-18T07:37:41;1.87;;;1.60;;
14078;SDS011;7115;50.150;8.568;2023-02-18T07:40:10;1.70;;;1.50;;
14078;SDS011;7115;50.150;8.568;2023-02-18T07:42:39;4.20;;;1.40;;
14078;SDS011;7115;50.150;8.568;2023-02-18T07:45:06;2.53;;;1.70;;
14078;SDS011;7115;50.150;8.568;2023-02-18T07:47:34;2.33;;;1.57;;
14078;SDS011;7115;50.150;8.568;2023-02-18T07:50:01;1.83;;;1.23;;
14078;SDS011;7115;50.150;8.568;2023-02-18T07:52:27;1.77;;;1.00;;
14078;SDS011;7115;50.150;8.568;2023-02-18T07:54:56;3.83;;;1.20;;
14078;SDS011;7115;50.150;8.568;2023-02-18T07:57:23;2.87;;;1.10;;
14078;SDS011;7115;50.150;8.568;2023-02-18T07:59:50;2.93;;;1.10;;
14078;SDS011;7115;50.150;8.568;2023-02-18T08:02:17;1.87;;;1.00;;
14078;SDS011;7115;50.150;8.568;2023-02-18T08:04:46;1.10;;;0.90;;
14078;SDS011;7115;50.150;8.568;2023-02-18T08:07:13;1.40;;;1.00;;
14078;SDS011;7115;50.150;8.568;2023-02-18T08:09:41;1.10;;;1.00;;
14078;SDS011;7115;50.150;8.568;2023-02-18T08:12:09;1.43;;;1.27;;
14078;SDS011;7115;50.150;8.568;2023-02-18T08:14:36;1.43;;;1.07;;
14078;SDS011;7115;50.150;8.568;2023-02-18T08:17:03;1.67;;;1.40;;
14078;SDS011;7115;50.150;8.568;2023-02-18T08:19:30;2.00;;;1.50;;
14078;SDS011;7115;50.150;8.568;2023-02-18T08:21:59;2.20;;;1.40;;
14078;SDS011;7115;50.150;8.568;2023-02-18T08:24:27;1.77;;;1.40;;
14078;SDS011;7115;50.150;8.568;2023-02-18T08:26:53;1.97;;;1.70;;
14078;SDS011;7115;50.150;8.568;2023-02-18T08:29:27;1.83;;;1.50;;
14078;SDS011;7115;50.150;8.568;2023-02-18T08:31:54;1.80;;;1.40;;
14078;SDS011;7115;50.150;8.568;2023-02-18T08:34:23;1.73;;;1.60;;
14078;SDS011;7115;50.150;8.568;2023-02-18T08:36:50;2.33;;;1.70;;
14078;SDS011;7115;50.150;8.568;2023-02-18T08:39:17;1.70;;;1.17;;
14078;SDS011;7115;50.150;8.568;2023-02-18T08:41:44;2.90;;;1.43;;
14078;SDS011;7115;50.150;8.568;2023-02-18T08:44:11;1.53;;;1.10;;
14078;SDS011;7115;50.150;8.568;2023-02-18T08:46:39;2.83;;;1.40;;
14078;SDS011;7115;50.150;8.568;2023-02-18T08:49:06;1.87;;;1.40;;
14078;SDS011;7115;50.150;8.568;2023-02-18T08:51:33;2.33;;;1.50;;
14078;SDS011;7115;50.150;8.568;2023-02-18T08:54:00;1.73;;;1.40;;
14078;SDS011;7115;50.150;8.568;2023-02-18T08:56:28;1.73;;;1.50;;
14078;SDS011;7115;50.150;8.568;2023-02-18T08:58:55;1.93;;;1.53;;
14078;SDS011;7115;50.150;8.568;2023-02-18T09:01:22;1.60;;;1.30;;
14078;SDS011;7115;50.150;8.568;2023-02-18T09:03:50;3.83;;;1.40;;
14078;SDS011;7115;50.150;8.568;2023-02-18T09:06:17;2.13;;;1.47;;
14078;SDS011;7115;50.150;8.568;2023-02-18T09:08:44;2.87;;;1.43;;
14078;SDS011;7115;50.150;8.568;2023-02-18T09:11:10;1.50;;;1.40;;
14078;SDS011;7115;50.150;8.568;2023-02-18T09:13:38;1.50;;;1.03;;
14078;SDS011;7115;50.150;8.568;2023-02-18T09:16:06;1.77;;;1.20;;
14078;SDS011;7115;50.150;8.568;2023-02-18T09:18:34;1.93;;;1.40;;
14078;SDS011;7115;50.150;8.568;2023-02-18T09:21:03;1.20;;;1.00;;
14078;SDS011;7115;50.150;8.568;2023-02-18T09:23:33;1.53;;;1.27;;
14078;SDS011;7115;50.150;8.568;2023-02-18T09:26:02;2.63;;;1.30;;
14078;SDS011;7115;50.150;8.568;2023-02-18T09:28:31;1.30;;;1.00;;
14078;SDS011;7115;50.150;8.568;2023-02-18T09:31:02;1.23;;;1.07;;
14078;SDS011;7115;50.150;8.568;2023-02-18T09:33:30;1.00;;;0.80;;
14078;SDS011;7115;50.150;8.568;2023-02-18T09:35:57;3.03;;;1.00;;
14078;SDS011;7115;50.150;8.568;2023-02-18T09:38:25;2.20;;;1.00;;
14078;SDS011;7115;50.150;8.568;2023-02-18T09:40:52;1.47;;;0.87;;
14078;SDS011;7115;50.150;8.568;2023-02-18T09:43:22;0.90;;;0.70;;
14078;SDS011;7115;50.150;8.568;2023-02-18T09:45:53;2.70;;;1.40;;
14078;SDS011;7115;50.150;8.568;2023-02-18T09:48:24;1.50;;;0.90;;
14078;SDS011;7115;50.150;8.568;2023-02-18T09:50:53;1.50;;;0.80;;
14078;SDS011;7115;50.150;8.568;2023-02-18T09:53:21;1.40;;;0.97;;
14078;SDS011;7115;50.150;8.568;2023-02-18T09:55:50;1.13;;;0.77;;
14078;SDS011;7115;50.150;8.568;2023-02-18T09:58:20;1.83;;;0.63;;
14078;SDS011;7115;50.150;8.568;2023-02-18T10:00:50;0.80;;;0.80;;
14078;SDS011;7115;50.150;8.568;2023-02-18T10:03:19;3.07;;;0.83;;
14078;SDS011;7115;50.150;8.568;2023-02-18T10:05:51;1.00;;;0.90;;
14078;SDS011;7115;50.150;8.568;2023-02-18T10:08:23;1.97;;;0.73;;
14078;SDS011;7115;50.150;8.568;2023-02-18T10:10:54;2.10;;;0.70;;
14078;SDS011;7115;50.150;8.568;2023-02-18T10:13:22;1.20;;;0.77;;
14078;SDS011;7115;50.150;8.568;2023-02-18T10:15:50;1.47;;;0.70;;
14078;SDS011;7115;50.150;8.568;2023-02-18T10:18:23;1.17;;;0.50;;
14078;SDS011;7115;50.150;8.568;2023-02-18T10:21:00;1.00;;;0.43;;
14078;SDS011;7115;50.150;8.568;2023-02-18T10:23:32;0.90;;;0.60;;
14078;SDS011;7115;50.150;8.568;2023-02-18T10:26:03;0.60;;;0.50;;
14078;SDS011;7115;50.150;8.568;2023-02-18T10:28:34;1.10;;;0.40;;
14078;SDS011;7115;50.150;8.568;2023-02-18T10:31:04;1.17;;;0.33;;
14078;SDS011;7115;50.150;8.568;2023-02-18T10:33:39;0.40;;;0.30;;
14078;SDS011;7115;50.150;8.568;2023-02-18T10:36:17;0.33;;;0.33;;
14078;SDS011;7115;50.150;8.568;2023-02-18T10:38:59;1.10;;;0.30;;
14078;SDS011;7115;50.150;8.568;2023-02-18T10:41:49;0.27;;;0.20;;
14078;SDS011;7115;50.150;8.568;2023-02-18T10:44:24;0.90;;;0.40;;
14078;SDS011;7115;50.150;8.568;2023-02-18T10:46:58;0.83;;;0.30;;
14078;SDS011;7115;50.150;8.568;2023-02-18T10:49:40;0.40;;;0.10;;
14078;SDS011;7115;50.150;8.568;2023-02-18T10:52:23;0.67;;;0.23;;
14078;SDS011;7115;50.150;8.568;2023-02-18T10:54:52;0.40;;;0.20;;
14078;SDS011;7115;50.150;8.568;2023-02-18T10:57:26;1.30;;;0.30;;
14078;SDS011;7115;50.150;8.568;2023-02-18T10:59:54;0.20;;;0.20;;
14078;SDS011;7115;50.150;8.568;2023-02-18T11:02:24;0.93;;;0.73;;
14078;SDS011;7115;50.150;8.568;2023-02-18T11:04:56;0.40;;;0.20;;
14078;SDS011;7115;50.150;8.568;2023-02-18T11:07:25;0.53;;;0.20;;
14078;SDS011;7115;50.150;8.568;2023-02-18T11:09:56;0.20;;;0.13;;
14078;SDS011;7115;50.150;8.568;2023-02-18T11:12:28;1.80;;;0.40;;
14078;SDS011;7115;50.150;8.568;2023-02-18T11:15:15;2.13;;;0.33;;
14078;SDS011;7115;50.150;8.568;2023-02-18T11:17:45;0.50;;;0.20;;
14078;SDS011;7115;50.150;8.568;2023-02-18T11:20:21;0.20;;;0.20;;
14078;SDS011;7115;50.150;8.568;2023-02-18T11:22:51;0.93;;;0.30;;
14078;SDS011;7115;50.150;8.568;2023-02-18T11:25:23;0.97;;;0.40;;
14078;SDS011;7115;50.150;8.568;2023-02-18T11:27:54;0.60;;;0.50;;
14078;SDS011;7115;50.150;8.568;2023-02-18T11:30:23;1.53;;;0.40;;
14078;SDS011;7115;50.150;8.568;2023-02-18T11:32:56;0.80;;;0.37;;
14078;SDS011;7115;50.150;8.568;2023-02-18T11:35:28;1.50;;;0.30;;
14078;SDS011;7115;50.150;8.568;2023-02-18T11:37:57;2.33;;;0.40;;
14078;SDS011;7115;50.150;8.568;2023-02-18T11:40:27;0.50;;;0.50;;
14078;SDS011;7115;50.150;8.568;2023-02-18T11:43:10;2.37;;;0.63;;
14078;SDS011;7115;50.150;8.568;2023-02-18T11:45:40;0.83;;;0.27;;
14078;SDS011;7115;50.150;8.568;2023-02-18T11:48:11;2.40;;;0.50;;
14078;SDS011;7115;50.150;8.568;2023-02-18T11:50:41;0.87;;;0.50;;
14078;SDS011;7115;50.150;8.568;2023-02-18T11:53:25;0.87;;;0.40;;
14078;SDS011;7115;50.150;8.568;2023-02-18T11:55:55;0.87;;;0.50;;
14078;SDS011;7115;50.150;8.568;2023-02-18T11:58:24;1.07;;;0.53;;
14078;SDS011;7115;50.150;8.568;2023-02-18T12:00:53;1.73;;;0.40;;
14078;SDS011;7115;50.150;8.568;2023-02-18T12:03:25;1.87;;;0.60;;
14078;SDS011;7115;50.150;8.568;2023-02-18T12:06:01;2.87;;;0.60;;
14078;SDS011;7115;50.150;8.568;2023-02-18T12:08:31;3.30;;;0.50;;
14078;SDS011;7115;50.150;8.568;2023-02-18T12:11:09;3.77;;;0.60;;
14078;SDS011;7115;50.150;8.568;2023-02-18T12:13:43;1.30;;;0.73;;
14078;SDS011;7115;50.150;8.568;2023-02-18T12:16:17;2.93;;;0.77;;
14078;SDS011;7115;50.150;8.568;2023-02-18T12:19:01;0.73;;;0.60;;
14078;SDS011;7115;50.150;8.568;2023-02-18T12:21:52;2.60;;;0.97;;
14078;SDS011;7115;50.150;8.568;2023-02-18T12:24:36;1.90;;;0.60;;
14078;SDS011;7115;50.150;8.568;2023-02-18T12:27:15;1.67;;;0.70;;
14078;SDS011;7115;50.150;8.568;2023-02-18T12:29:54;4.27;;;0.80;;
14078;SDS011;7115;50.150;8.568;2023-02-18T12:32:34;3.30;;;0.83;;
14078;SDS011;7115;50.150;8.568;2023-02-18T12:35:12;1.43;;;0.60;;
14078;SDS011;7115;50.150;8.568;2023-02-18T12:37:57;1.93;;;0.70;;
14078;SDS011;7115;50.150;8.568;2023-02-18T12:43:33;1.87;;;0.80;;
14078;SDS011;7115;50.150;8.568;2023-02-18T12:46:16;2.47;;;0.63;;
14078;SDS011;7115;50.150;8.568;2023-02-18T12:48:56;1.10;;;0.70;;
14078;SDS011;7115;50.150;8.568;2023-02-18T12:51:37;2.57;;;0.93;;
14078;SDS011;7115;50.150;8.568;2023-02-18T12:54:31;4.23;;;1.03;;
14078;SDS011;7115;50.150;8.568;2023-02-18T12:57:16;3.40;;;1.07;;
14078;SDS011;7115;50.150;8.568;2023-02-18T13:03:18;1.40;;;0.70;;
14078;SDS011;7115;50.150;8.568;2023-02-18T13:06:02;1.50;;;1.00;;
14078;SDS011;7115;50.150;8.568;2023-02-18T13:08:42;4.37;;;0.90;;
14078;SDS011;7115;50.150;8.568;2023-02-18T13:11:20;1.63;;;0.90;;
14078;SDS011;7115;50.150;8.568;2023-02-18T13:13:55;1.37;;;0.70;;
14078;SDS011;7115;50.150;8.568;2023-02-18T13:16:27;1.27;;;0.80;;
14078;SDS011;7115;50.150;8.568;2023-02-18T13:19:00;0.97;;;0.80;;
14078;SDS011;7115;50.150;8.568;2023-02-18T13:21:32;2.80;;;0.80;;
14078;SDS011;7115;50.150;8.568;2023-02-18T13:24:05;0.97;;;0.70;;
14078;SDS011;7115;50.150;8.568;2023-02-18T13:26:36;0.97;;;0.87;;
14078;SDS011;7115;50.150;8.568;2023-02-18T13:29:13;0.93;;;0.70;;
14078;SDS011;7115;50.150;8.568;2023-02-18T13:31:51;3.60;;;1.10;;
14078;SDS011;7115;50.150;8.568;2023-02-18T13:34:30;2.50;;;0.67;;
14078;SDS011;7115;50.150;8.568;2023-02-18T13:37:03;1.63;;;0.77;;
14078;SDS011;7115;50.150;8.568;2023-02-18T13:39:37;3.73;;;0.93;;
14078;SDS011;7115;50.150;8.568;2023-02-18T13:42:23;3.60;;;1.00;;
14078;SDS011;7115;50.150;8.568;2023-02-18T13:47:55;2.43;;;1.10;;
14078;SDS011;7115;50.150;8.568;2023-02-18T13:50:26;2.20;;;0.70;;
14078;SDS011;7115;50.150;8.568;2023-02-18T13:55:51;2.60;;;1.10;;
14078;SDS011;7115;50.150;8.568;2023-02-18T13:58:23;3.67;;;0.90;;
14078;SDS011;7115;50.150;8.568;2023-02-18T14:00:55;1.87;;;0.90;;
14078;SDS011;7115;50.150;8.568;2023-02-18T14:03:32;1.57;;;0.90;;
14078;SDS011;7115;50.150;8.568;2023-02-18T14:06:04;3.43;;;0.80;;
14078;SDS011;7115;50.150;8.568;2023-02-18T14:08:40;4.80;;;1.00;;
14078;SDS011;7115;50.150;8.568;2023-02-18T14:11:24;2.70;;;1.00;;
14078;SDS011;7115;50.150;8.568;2023-02-18T14:14:15;1.73;;;0.83;;
14078;SDS011;7115;50.150;8.568;2023-02-18T14:23:36;3.03;;;1.40;;
14078;SDS011;7115;50.150;8.568;2023-02-18T14:26:26;1.70;;;0.80;;
14078;SDS011;7115;50.150;8.568;2023-02-18T14:29:00;2.47;;;1.37;;
14078;SDS011;7115;50.150;8.568;2023-02-18T14:31:33;1.63;;;0.83;;
14078;SDS011;7115;50.150;8.568;2023-02-18T14:34:19;1.63;;;0.90;;
14078;SDS011;7115;50.150;8.568;2023-02-18T14:37:18;1.77;;;0.80;;
14078;SDS011;7115;50.150;8.568;2023-02-18T14:40:01;2.00;;;1.13;;
14078;SDS011;7115;50.150;8.568;2023-02-18T14:42:43;2.65;;;1.20;;
14078;SDS011;7115;50.150;8.568;2023-02-18T14:45:18;2.90;;;1.07;;
14078;SDS011;7115;50.150;8.568;2023-02-18T14:48:04;2.40;;;0.97;;
14078;SDS011;7115;50.150;8.568;2023-02-18T14:50:43;3.33;;;1.00;;
14078;SDS011;7115;50.150;8.568;2023-02-18T14:53:16;2.07;;;1.00;;
14078;SDS011;7115;50.150;8.568;2023-02-18T14:55:47;1.10;;;0.90;;
14078;SDS011;7115;50.150;8.568;2023-02-18T14:58:20;1.40;;;0.80;;
14078;SDS011;7115;50.150;8.568;2023-02-18T15:00:53;2.47;;;0.80;;
14078;SDS011;7115;50.150;8.568;2023-02-18T15:03:20;0.90;;;0.70;;
14078;SDS011;7115;50.150;8.568;2023-02-18T15:05:48;1.20;;;0.80;;
14078;SDS011;7115;50.150;8.568;2023-02-18T15:08:17;1.60;;;0.70;;
14078;SDS011;7115;50.150;8.568;2023-02-18T15:10:47;2.30;;;0.80;;
14078;SDS011;7115;50.150;8.568;2023-02-18T15:13:17;1.77;;;0.70;;
14078;SDS011;7115;50.150;8.568;2023-02-18T15:15:48;0.70;;;0.60;;
14078;SDS011;7115;50.150;8.568;2023-02-18T15:18:19;0.90;;;0.80;;
14078;SDS011;7115;50.150;8.568;2023-02-18T15:20:50;2.57;;;0.70;;
14078;SDS011;7115;50.150;8.568;2023-02-18T15:23:17;1.43;;;0.80;;
14078;SDS011;7115;50.150;8.568;2023-02-18T15:25:46;0.40;;;0.40;;
14078;SDS011;7115;50.150;8.568;2023-02-18T15:28:21;0.67;;;0.57;;
14078;SDS011;7115;50.150;8.568;2023-02-18T15:30:49;1.00;;;0.47;;
14078;SDS011;7115;50.150;8.568;2023-02-18T15:33:18;1.57;;;0.57;;
14078;SDS011;7115;50.150;8.568;2023-02-18T15:35:46;1.07;;;0.40;;
14078;SDS011;7115;50.150;8.568;2023-02-18T15:38:14;0.67;;;0.50;;
14078;SDS011;7115;50.150;8.568;2023-02-18T15:40:43;0.97;;;0.60;;
14078;SDS011;7115;50.150;8.568;2023-02-18T15:43:14;1.27;;;0.43;;
14078;SDS011;7115;50.150;8.568;2023-02-18T15:45:45;1.23;;;0.47;;